sensor_id;sensor_type;location;lat;lon;timestamp;temperature;humidity
8565;DHT22;4320;51.498;6.556;2023-03-04T00:01:04;7.00;1.00
8565;DHT22;4320;51.498;6.556;2023-03-04T00:03:29;6.90;1.00
8565;DHT22;4320;51.498;6.556;2023-03-04T00:05:55;7.00;1.00
8565;DHT22;4320;51.498;6.556;2023-03-04T00:08:21;6.90;1.00
8565;DHT22;4320;51.498;6.556;2023-03-04T00:10:46;6.90;1.00
8565;DHT22;4320;51.498;6.556;2023-03-04T00:13:12;6.90;1.00
8565;DHT22;4320;51.498;6.556;2023-03-04T00:15:38;7.00;1.00
8565;DHT22;4320;51.498;6.556;2023-03-04T00:18:03;7.00;1.00
8565;DHT22;4320;51.498;6.556;2023-03-04T00:20:29;7.00;1.00
8565;DHT22;4320;51.498;6.556;2023-03-04T00:22:55;7.00;1.00
8565;DHT22;4320;51.498;6.556;2023-03-04T00:25:20;7.00;1.00
8565;DHT22;4320;51.498;6.556;2023-03-04T00:27:46;7.00;1.00
8565;DHT22;4320;51.498;6.556;2023-03-04T00:30:12;7.00;1.00
8565;DHT22;4320;51.498;6.556;2023-03-04T00:32:38;7.10;1.00
8565;DHT22;4320;51.498;6.556;2023-03-04T00:35:05;7.00;1.00
8565;DHT22;4320;51.498;6.556;2023-03-04T00:37:31;7.00;1.00
8565;DHT22;4320;51.498;6.556;2023-03-04T00:39:57;7.10;1.00
8565;DHT22;4320;51.498;6.556;2023-03-04T00:42:22;7.00;1.00
8565;DHT22;4320;51.498;6.556;2023-03-04T00:44:48;7.10;1.00
8565;DHT22;4320;51.498;6.556;2023-03-04T00:47:14;7.10;1.00
8565;DHT22;4320;51.498;6.556;2023-03-04T00:49:39;7.10;1.00
8565;DHT22;4320;51.498;6.556;2023-03-04T00:52:05;7.10;1.00
8565;DHT22;4320;51.498;6.556;2023-03-04T00:54:31;7.10;1.00
8565;DHT22;4320;51.498;6.556;2023-03-04T00:56:56;7.10;1.00
8565;DHT22;4320;51.498;6.556;2023-03-04T00:59:22;7.00;1.00
8565;DHT22;4320;51.498;6.556;2023-03-04T01:01:48;7.00;1.00
8565;DHT22;4320;51.498;6.556;2023-03-04T01:04:13;7.10;1.00
8565;DHT22;4320;51.498;6.556;2023-03-04T01:06:39;7.10;1.00
8565;DHT22;4320;51.498;6.556;2023-03-04T01:09:04;7.10;1.00
8565;DHT22;4320;51.498;6.556;2023-03-04T01:11:30;7.10;1.00
8565;DHT22;4320;51.498;6.556;2023-03-04T01:13:56;7.20;1.00
8565;DHT22;4320;51.498;6.556;2023-03-04T01:16:21;7.20;1.00
8565;DHT22;4320;51.498;6.556;2023-03-04T01:18:47;7.20;1.00
8565;DHT22;4320;51.498;6.556;2023-03-04T01:21:13;7.20;1.00
8565;DHT22;4320;51.498;6.556;2023-03-04T01:23:39;7.20;1.00
8565;DHT22;4320;51.498;6.556;2023-03-04T01:26:04;7.20;1.00
8565;DHT22;4320;51.498;6.556;2023-03-04T01:28:30;7.20;1.00
8565;DHT22;4320;51.498;6.556;2023-03-04T01:31:03;7.20;1.00
8565;DHT22;4320;51.498;6.556;2023-03-04T01:33:29;7.20;1.00
8565;DHT22;4320;51.498;6.556;2023-03-04T01:35:55;7.20;1.00
8565;DHT22;4320;51.498;6.556;2023-03-04T01:38:21;7.30;1.00
8565;DHT22;4320;51.498;6.556;2023-03-04T01:40:47;7.30;1.00
8565;DHT22;4320;51.498;6.556;2023-03-04T01:43:24;7.30;1.00
8565;DHT22;4320;51.498;6.556;2023-03-04T01:45:52;7.30;1.00
8565;DHT22;4320;51.498;6.556;2023-03-04T01:48:23;7.30;1.00
8565;DHT22;4320;51.498;6.556;2023-03-04T01:50:50;7.20;1.00
8565;DHT22;4320;51.498;6.556;2023-03-04T01:53:20;7.20;1.00
8565;DHT22;4320;51.498;6.556;2023-03-04T01:55:47;7.20;1.00
8565;DHT22;4320;51.498;6.556;2023-03-04T01:58:12;7.20;1.00
8565;DHT22;4320;51.498;6.556;2023-03-04T02:00:38;7.20;1.00
8565;DHT22;4320;51.498;6.556;2023-03-04T02:03:07;7.20;1.00
8565;DHT22;4320;51.498;6.556;2023-03-04T02:05:35;7.20;1.00
8565;DHT22;4320;51.498;6.556;2023-03-04T02:08:02;7.20;1.00
8565;DHT22;4320;51.498;6.556;2023-03-04T02:10:29;7.10;1.00
8565;DHT22;4320;51.498;6.556;2023-03-04T02:12:55;7.10;1.00
8565;DHT22;4320;51.498;6.556;2023-03-04T02:15:22;7.10;1.00
8565;DHT22;4320;51.498;6.556;2023-03-04T02:17:48;7.10;1.00
8565;DHT22;4320;51.498;6.556;2023-03-04T02:26:16;7.00;1.00
8565;DHT22;4320;51.498;6.556;2023-03-04T02:28:43;6.90;1.00
8565;DHT22;4320;51.498;6.556;2023-03-04T02:31:26;6.90;1.00
8565;DHT22;4320;51.498;6.556;2023-03-04T02:33:55;6.90;1.00
8565;DHT22;4320;51.498;6.556;2023-03-04T02:36:22;7.00;1.00
8565;DHT22;4320;51.498;6.556;2023-03-04T02:38:52;7.00;1.00
8565;DHT22;4320;51.498;6.556;2023-03-04T02:41:23;7.10;1.00
8565;DHT22;4320;51.498;6.556;2023-03-04T02:43:52;7.10;1.00
8565;DHT22;4320;51.498;6.556;2023-03-04T02:46:19;7.10;1.00
8565;DHT22;4320;51.498;6.556;2023-03-04T02:48:44;7.10;1.00
8565;DHT22;4320;51.498;6.556;2023-03-04T02:51:10;7.20;1.00
8565;DHT22;4320;51.498;6.556;2023-03-04T02:53:36;7.20;1.00
8565;DHT22;4320;51.498;6.556;2023-03-04T02:56:02;7.20;1.00
8565;DHT22;4320;51.498;6.556;2023-03-04T02:58:28;7.10;1.00
8565;DHT22;4320;51.498;6.556;2023-03-04T03:00:53;7.10;1.00
8565;DHT22;4320;51.498;6.556;2023-03-04T03:03:19;7.10;1.00
8565;DHT22;4320;51.498;6.556;2023-03-04T03:05:45;7.10;1.00
8565;DHT22;4320;51.498;6.556;2023-03-04T03:08:10;7.10;1.00
8565;DHT22;4320;51.498;6.556;2023-03-04T03:10:36;7.10;1.00
8565;DHT22;4320;51.498;6.556;2023-03-04T03:13:02;7.10;1.00
8565;DHT22;4320;51.498;6.556;2023-03-04T03:15:27;7.20;1.00
8565;DHT22;4320;51.498;6.556;2023-03-04T03:17:53;7.10;1.00
8565;DHT22;4320;51.498;6.556;2023-03-04T03:20:19;7.10;1.00
8565;DHT22;4320;51.498;6.556;2023-03-04T03:22:45;7.00;1.00
8565;DHT22;4320;51.498;6.556;2023-03-04T03:25:12;7.00;1.00
8565;DHT22;4320;51.498;6.556;2023-03-04T03:27:39;7.10;1.00
8565;DHT22;4320;51.498;6.556;2023-03-04T03:30:07;7.10;1.00
8565;DHT22;4320;51.498;6.556;2023-03-04T03:32:33;7.00;1.00
8565;DHT22;4320;51.498;6.556;2023-03-04T03:34:58;7.10;1.00
8565;DHT22;4320;51.498;6.556;2023-03-04T03:37:24;7.10;1.00
8565;DHT22;4320;51.498;6.556;2023-03-04T03:39:49;7.10;1.00
8565;DHT22;4320;51.498;6.556;2023-03-04T03:42:15;7.10;1.00
8565;DHT22;4320;51.498;6.556;2023-03-04T03:44:41;7.10;1.00
8565;DHT22;4320;51.498;6.556;2023-03-04T03:47:06;7.10;1.00
8565;DHT22;4320;51.498;6.556;2023-03-04T03:49:32;7.10;1.00
8565;DHT22;4320;51.498;6.556;2023-03-04T03:51:58;7.10;1.00
8565;DHT22;4320;51.498;6.556;2023-03-04T03:54:23;7.10;1.00
8565;DHT22;4320;51.498;6.556;2023-03-04T03:56:49;7.10;1.00
8565;DHT22;4320;51.498;6.556;2023-03-04T03:59:15;7.10;1.00
8565;DHT22;4320;51.498;6.556;2023-03-04T04:01:40;7.10;1.00
8565;DHT22;4320;51.498;6.556;2023-03-04T04:04:06;7.00;1.00
8565;DHT22;4320;51.498;6.556;2023-03-04T04:06:32;7.10;1.00
8565;DHT22;4320;51.498;6.556;2023-03-04T04:08:57;7.10;1.00
8565;DHT22;4320;51.498;6.556;2023-03-04T04:11:23;7.00;1.00
8565;DHT22;4320;51.498;6.556;2023-03-04T04:13:48;7.00;1.00
8565;DHT22;4320;51.498;6.556;2023-03-04T04:16:14;7.00;1.00
8565;DHT22;4320;51.498;6.556;2023-03-04T04:18:40;6.90;1.00
8565;DHT22;4320;51.498;6.556;2023-03-04T04:21:05;6.90;1.00
8565;DHT22;4320;51.498;6.556;2023-03-04T04:23:31;6.90;1.00
8565;DHT22;4320;51.498;6.556;2023-03-04T04:25:57;6.90;1.00
8565;DHT22;4320;51.498;6.556;2023-03-04T04:28:23;6.90;1.00
8565;DHT22;4320;51.498;6.556;2023-03-04T04:30:48;6.90;1.00
8565;DHT22;4320;51.498;6.556;2023-03-04T04:33:14;6.90;1.00
8565;DHT22;4320;51.498;6.556;2023-03-04T04:35:40;6.90;1.00
8565;DHT22;4320;51.498;6.556;2023-03-04T04:38:06;6.80;1.00
8565;DHT22;4320;51.498;6.556;2023-03-04T04:40:32;6.80;1.00
8565;DHT22;4320;51.498;6.556;2023-03-04T04:42:58;6.90;1.00
8565;DHT22;4320;51.498;6.556;2023-03-04T04:45:24;6.90;1.00
8565;DHT22;4320;51.498;6.556;2023-03-04T04:47:50;6.90;1.00
8565;DHT22;4320;51.498;6.556;2023-03-04T04:50:16;6.80;1.00
8565;DHT22;4320;51.498;6.556;2023-03-04T04:52:42;6.90;1.00
8565;DHT22;4320;51.498;6.556;2023-03-04T04:55:08;7.00;1.00
8565;DHT22;4320;51.498;6.556;2023-03-04T04:57:34;7.00;1.00
8565;DHT22;4320;51.498;6.556;2023-03-04T05:00:00;7.00;1.00
8565;DHT22;4320;51.498;6.556;2023-03-04T05:02:25;7.00;1.00
8565;DHT22;4320;51.498;6.556;2023-03-04T05:04:51;7.00;1.00
8565;DHT22;4320;51.498;6.556;2023-03-04T05:07:17;7.00;1.00
8565;DHT22;4320;51.498;6.556;2023-03-04T05:09:42;6.90;1.00
8565;DHT22;4320;51.498;6.556;2023-03-04T05:12:08;7.00;1.00
8565;DHT22;4320;51.498;6.556;2023-03-04T05:14:34;7.00;1.00
8565;DHT22;4320;51.498;6.556;2023-03-04T05:16:59;7.00;1.00
8565;DHT22;4320;51.498;6.556;2023-03-04T05:19:25;7.00;1.00
8565;DHT22;4320;51.498;6.556;2023-03-04T05:21:51;7.00;1.00
8565;DHT22;4320;51.498;6.556;2023-03-04T05:24:16;7.00;1.00
8565;DHT22;4320;51.498;6.556;2023-03-04T05:26:42;7.00;1.00
8565;DHT22;4320;51.498;6.556;2023-03-04T05:29:08;7.00;1.00
8565;DHT22;4320;51.498;6.556;2023-03-04T05:31:33;7.00;1.00
8565;DHT22;4320;51.498;6.556;2023-03-04T05:33:59;6.90;1.00
8565;DHT22;4320;51.498;6.556;2023-03-04T05:36:24;6.90;1.00
8565;DHT22;4320;51.498;6.556;2023-03-04T05:38:50;6.90;1.00
8565;DHT22;4320;51.498;6.556;2023-03-04T05:41:16;6.90;1.00
8565;DHT22;4320;51.498;6.556;2023-03-04T05:43:44;6.90;1.00
8565;DHT22;4320;51.498;6.556;2023-03-04T05:46:14;6.90;1.00
8565;DHT22;4320;51.498;6.556;2023-03-04T05:48:40;6.90;1.00
8565;DHT22;4320;51.498;6.556;2023-03-04T05:51:06;6.90;1.00
8565;DHT22;4320;51.498;6.556;2023-03-04T05:53:31;6.90;1.00
8565;DHT22;4320;51.498;6.556;2023-03-04T05:55:57;6.90;1.00
8565;DHT22;4320;51.498;6.556;2023-03-04T05:58:24;6.90;1.00
8565;DHT22;4320;51.498;6.556;2023-03-04T06:00:50;7.00;1.00
8565;DHT22;4320;51.498;6.556;2023-03-04T06:03:18;7.00;1.00
8565;DHT22;4320;51.498;6.556;2023-03-04T06:05:44;7.00;1.00
8565;DHT22;4320;51.498;6.556;2023-03-04T06:08:10;7.00;1.00
8565;DHT22;4320;51.498;6.556;2023-03-04T06:10:36;7.00;1.00
8565;DHT22;4320;51.498;6.556;2023-03-04T06:13:01;7.00;1.00
8565;DHT22;4320;51.498;6.556;2023-03-04T06:15:27;7.00;1.00
8565;DHT22;4320;51.498;6.556;2023-03-04T06:17:53;7.00;1.00
8565;DHT22;4320;51.498;6.556;2023-03-04T06:20:18;6.90;1.00
8565;DHT22;4320;51.498;6.556;2023-03-04T06:22:44;7.00;1.00
8565;DHT22;4320;51.498;6.556;2023-03-04T06:25:10;6.90;1.00
8565;DHT22;4320;51.498;6.556;2023-03-04T06:27:35;7.00;1.00
8565;DHT22;4320;51.498;6.556;2023-03-04T06:30:01;7.00;1.00
8565;DHT22;4320;51.498;6.556;2023-03-04T06:32:27;7.00;1.00
8565;DHT22;4320;51.498;6.556;2023-03-04T06:34:53;7.00;1.00
8565;DHT22;4320;51.498;6.556;2023-03-04T06:37:18;7.10;1.00
8565;DHT22;4320;51.498;6.556;2023-03-04T06:39:44;7.00;1.00
8565;DHT22;4320;51.498;6.556;2023-03-04T06:42:10;7.00;1.00
8565;DHT22;4320;51.498;6.556;2023-03-04T06:44:36;7.00;1.00
8565;DHT22;4320;51.498;6.556;2023-03-04T06:47:02;6.90;1.00
8565;DHT22;4320;51.498;6.556;2023-03-04T06:49:27;7.00;1.00
8565;DHT22;4320;51.498;6.556;2023-03-04T06:51:53;7.00;1.00
8565;DHT22;4320;51.498;6.556;2023-03-04T06:54:18;7.10;1.00
8565;DHT22;4320;51.498;6.556;2023-03-04T06:56:44;7.10;1.00
8565;DHT22;4320;51.498;6.556;2023-03-04T06:59:10;7.00;1.00
8565;DHT22;4320;51.498;6.556;2023-03-04T07:01:35;7.10;1.00
8565;DHT22;4320;51.498;6.556;2023-03-04T07:04:02;7.10;1.00
8565;DHT22;4320;51.498;6.556;2023-03-04T07:06:28;7.00;1.00
8565;DHT22;4320;51.498;6.556;2023-03-04T07:08:55;7.00;1.00
8565;DHT22;4320;51.498;6.556;2023-03-04T07:11:20;7.00;1.00
8565;DHT22;4320;51.498;6.556;2023-03-04T07:13:47;7.00;1.00
8565;DHT22;4320;51.498;6.556;2023-03-04T07:16:15;7.00;1.00
8565;DHT22;4320;51.498;6.556;2023-03-04T07:18:42;7.00;1.00
8565;DHT22;4320;51.498;6.556;2023-03-04T07:21:10;7.00;1.00
8565;DHT22;4320;51.498;6.556;2023-03-04T07:23:37;7.10;1.00
8565;DHT22;4320;51.498;6.556;2023-03-04T07:26:03;7.10;1.00
8565;DHT22;4320;51.498;6.556;2023-03-04T07:28:29;7.10;1.00
8565;DHT22;4320;51.498;6.556;2023-03-04T07:30:55;7.10;1.00
8565;DHT22;4320;51.498;6.556;2023-03-04T07:33:20;7.10;1.00
8565;DHT22;4320;51.498;6.556;2023-03-04T07:35:46;7.10;1.00
8565;DHT22;4320;51.498;6.556;2023-03-04T07:38:12;7.10;1.00
8565;DHT22;4320;51.498;6.556;2023-03-04T07:40:37;7.20;1.00
8565;DHT22;4320;51.498;6.556;2023-03-04T07:43:04;7.20;1.00
8565;DHT22;4320;51.498;6.556;2023-03-04T07:45:29;7.40;1.00
8565;DHT22;4320;51.498;6.556;2023-03-04T07:47:57;7.60;1.00
8565;DHT22;4320;51.498;6.556;2023-03-04T07:50:23;7.60;1.00
8565;DHT22;4320;51.498;6.556;2023-03-04T07:52:48;7.70;1.00
8565;DHT22;4320;51.498;6.556;2023-03-04T07:55:18;7.70;1.00
8565;DHT22;4320;51.498;6.556;2023-03-04T07:57:46;7.60;1.00
8565;DHT22;4320;51.498;6.556;2023-03-04T08:00:14;7.70;1.00
8565;DHT22;4320;51.498;6.556;2023-03-04T08:02:40;7.60;1.00
8565;DHT22;4320;51.498;6.556;2023-03-04T08:05:07;7.70;1.00
8565;DHT22;4320;51.498;6.556;2023-03-04T08:07:33;8.10;1.00
8565;DHT22;4320;51.498;6.556;2023-03-04T08:09:59;8.30;1.00
8565;DHT22;4320;51.498;6.556;2023-03-04T08:12:25;8.30;1.00
8565;DHT22;4320;51.498;6.556;2023-03-04T08:14:50;8.60;1.00
8565;DHT22;4320;51.498;6.556;2023-03-04T08:17:16;8.60;1.00
8565;DHT22;4320;51.498;6.556;2023-03-04T08:19:42;8.40;1.00
8565;DHT22;4320;51.498;6.556;2023-03-04T08:22:08;8.40;1.00
8565;DHT22;4320;51.498;6.556;2023-03-04T08:24:34;8.40;1.00
8565;DHT22;4320;51.498;6.556;2023-03-04T08:26:59;8.50;1.00
8565;DHT22;4320;51.498;6.556;2023-03-04T08:29:26;8.60;1.00
8565;DHT22;4320;51.498;6.556;2023-03-04T08:31:52;8.70;1.00
8565;DHT22;4320;51.498;6.556;2023-03-04T08:34:20;8.70;1.00
8565;DHT22;4320;51.498;6.556;2023-03-04T08:36:46;8.70;1.00
8565;DHT22;4320;51.498;6.556;2023-03-04T08:39:15;8.50;1.00
8565;DHT22;4320;51.498;6.556;2023-03-04T08:41:42;8.70;1.00
8565;DHT22;4320;51.498;6.556;2023-03-04T08:44:07;8.60;1.00
8565;DHT22;4320;51.498;6.556;2023-03-04T08:46:35;8.40;1.00
8565;DHT22;4320;51.498;6.556;2023-03-04T08:49:00;8.40;1.00
8565;DHT22;4320;51.498;6.556;2023-03-04T08:51:27;8.40;1.00
8565;DHT22;4320;51.498;6.556;2023-03-04T08:53:52;8.30;1.00
8565;DHT22;4320;51.498;6.556;2023-03-04T08:56:18;8.30;1.00
8565;DHT22;4320;51.498;6.556;2023-03-04T08:58:43;8.40;1.00
8565;DHT22;4320;51.498;6.556;2023-03-04T09:01:11;8.40;1.00
8565;DHT22;4320;51.498;6.556;2023-03-04T09:03:38;8.40;1.00
8565;DHT22;4320;51.498;6.556;2023-03-04T09:06:05;8.60;1.00
8565;DHT22;4320;51.498;6.556;2023-03-04T09:08:31;8.50;1.00
8565;DHT22;4320;51.498;6.556;2023-03-04T09:10:57;8.50;1.00
8565;DHT22;4320;51.498;6.556;2023-03-04T09:13:24;8.40;1.00
8565;DHT22;4320;51.498;6.556;2023-03-04T09:15:51;8.40;1.00
8565;DHT22;4320;51.498;6.556;2023-03-04T09:18:19;8.50;1.00
8565;DHT22;4320;51.498;6.556;2023-03-04T09:20:45;8.50;1.00
8565;DHT22;4320;51.498;6.556;2023-03-04T09:23:12;8.70;1.00
8565;DHT22;4320;51.498;6.556;2023-03-04T09:25:38;9.10;1.00
8565;DHT22;4320;51.498;6.556;2023-03-04T09:28:05;10.00;1.00
8565;DHT22;4320;51.498;6.556;2023-03-04T09:30:31;11.00;1.00
8565;DHT22;4320;51.498;6.556;2023-03-04T09:32:57;10.80;1.00
8565;DHT22;4320;51.498;6.556;2023-03-04T09:35:23;10.50;1.00
8565;DHT22;4320;51.498;6.556;2023-03-04T09:37:50;10.00;1.00
8565;DHT22;4320;51.498;6.556;2023-03-04T09:40:20;9.70;1.00
8565;DHT22;4320;51.498;6.556;2023-03-04T09:42:49;9.70;1.00
8565;DHT22;4320;51.498;6.556;2023-03-04T09:45:21;9.50;1.00
8565;DHT22;4320;51.498;6.556;2023-03-04T09:47:51;9.20;1.00
8565;DHT22;4320;51.498;6.556;2023-03-04T09:50:19;9.10;1.00
8565;DHT22;4320;51.498;6.556;2023-03-04T09:53:04;9.20;1.00
8565;DHT22;4320;51.498;6.556;2023-03-04T09:55:34;9.00;1.00
8565;DHT22;4320;51.498;6.556;2023-03-04T10:06:26;9.00;1.00
8565;DHT22;4320;51.498;6.556;2023-03-04T10:16:52;9.40;1.00
8565;DHT22;4320;51.498;6.556;2023-03-04T10:21:58;9.60;1.00
8565;DHT22;4320;51.498;6.556;2023-03-04T10:24:27;9.60;1.00
8565;DHT22;4320;51.498;6.556;2023-03-04T10:27:04;9.50;1.00
8565;DHT22;4320;51.498;6.556;2023-03-04T10:29:32;9.50;1.00
8565;DHT22;4320;51.498;6.556;2023-03-04T10:31:58;9.40;1.00
8565;DHT22;4320;51.498;6.556;2023-03-04T10:34:24;9.20;1.00
8565;DHT22;4320;51.498;6.556;2023-03-04T10:36:57;9.10;1.00
8565;DHT22;4320;51.498;6.556;2023-03-04T10:39:31;9.10;1.00
8565;DHT22;4320;51.498;6.556;2023-03-04T10:42:04;9.10;1.00
8565;DHT22;4320;51.498;6.556;2023-03-04T10:44:32;9.20;1.00
8565;DHT22;4320;51.498;6.556;2023-03-04T10:46:59;9.40;1.00
8565;DHT22;4320;51.498;6.556;2023-03-04T10:49:27;9.40;1.00
8565;DHT22;4320;51.498;6.556;2023-03-04T10:52:18;9.90;1.00
8565;DHT22;4320;51.498;6.556;2023-03-04T10:54:50;10.50;1.00
8565;DHT22;4320;51.498;6.556;2023-03-04T10:59:55;10.60;1.00
8565;DHT22;4320;51.498;6.556;2023-03-04T11:05:04;10.70;1.00
8565;DHT22;4320;51.498;6.556;2023-03-04T11:07:30;10.60;1.00
8565;DHT22;4320;51.498;6.556;2023-03-04T11:10:13;10.70;1.00
8565;DHT22;4320;51.498;6.556;2023-03-04T11:12:40;10.50;1.00
8565;DHT22;4320;51.498;6.556;2023-03-04T11:15:17;10.50;1.00
8565;DHT22;4320;51.498;6.556;2023-03-04T11:17:49;10.10;1.00
8565;DHT22;4320;51.498;6.556;2023-03-04T11:20:35;9.90;1.00
8565;DHT22;4320;51.498;6.556;2023-03-04T11:26:25;9.80;1.00
8565;DHT22;4320;51.498;6.556;2023-03-04T11:31:44;9.90;1.00
8565;DHT22;4320;51.498;6.556;2023-03-04T11:34:13;9.70;1.00
8565;DHT22;4320;51.498;6.556;2023-03-04T11:44:34;9.70;1.00
8565;DHT22;4320;51.498;6.556;2023-03-04T11:49:59;9.80;1.00
8565;DHT22;4320;51.498;6.556;2023-03-04T12:04:09;9.50;1.00
8565;DHT22;4320;51.498;6.556;2023-03-04T12:12:24;9.30;1.00
8565;DHT22;4320;51.498;6.556;2023-03-04T12:18:04;9.50;1.00
8565;DHT22;4320;51.498;6.556;2023-03-04T12:20:56;9.60;1.00
8565;DHT22;4320;51.498;6.556;2023-03-04T12:28:45;9.70;1.00
8565;DHT22;4320;51.498;6.556;2023-03-04T12:33:58;9.50;1.00
8565;DHT22;4320;51.498;6.556;2023-03-04T12:36:54;9.50;1.00
8565;DHT22;4320;51.498;6.556;2023-03-04T12:39:32;9.40;1.00
8565;DHT22;4320;51.498;6.556;2023-03-04T12:48:25;9.40;1.00
8565;DHT22;4320;51.498;6.556;2023-03-04T12:53:41;9.60;1.00
8565;DHT22;4320;51.498;6.556;2023-03-04T12:56:27;9.60;1.00
8565;DHT22;4320;51.498;6.556;2023-03-04T12:58:57;9.90;1.00
8565;DHT22;4320;51.498;6.556;2023-03-04T13:01:39;10.10;1.00
8565;DHT22;4320;51.498;6.556;2023-03-04T13:04:17;10.20;1.00
8565;DHT22;4320;51.498;6.556;2023-03-04T13:07:26;10.20;1.00
8565;DHT22;4320;51.498;6.556;2023-03-04T13:09:47;10.10;1.00
8565;DHT22;4320;51.498;6.556;2023-03-04T13:12:17;10.20;1.00
8565;DHT22;4320;51.498;6.556;2023-03-04T13:17:43;10.10;1.00
8565;DHT22;4320;51.498;6.556;2023-03-04T13:20:34;10.00;1.00
8565;DHT22;4320;51.498;6.556;2023-03-04T13:25:40;9.80;1.00
8565;DHT22;4320;51.498;6.556;2023-03-04T13:38:23;9.60;1.00
8565;DHT22;4320;51.498;6.556;2023-03-04T13:43:50;9.50;1.00
8565;DHT22;4320;51.498;6.556;2023-03-04T13:56:35;9.60;1.00
8565;DHT22;4320;51.498;6.556;2023-03-04T14:04:21;9.40;1.00
8565;DHT22;4320;51.498;6.556;2023-03-04T14:06:50;9.50;1.00
8565;DHT22;4320;51.498;6.556;2023-03-04T14:09:22;9.50;1.00
8565;DHT22;4320;51.498;6.556;2023-03-04T14:11:50;9.60;1.00
8565;DHT22;4320;51.498;6.556;2023-03-04T14:14:20;9.60;1.00
8565;DHT22;4320;51.498;6.556;2023-03-04T14:16:50;9.80;1.00
8565;DHT22;4320;51.498;6.556;2023-03-04T14:19:26;9.80;1.00
8565;DHT22;4320;51.498;6.556;2023-03-04T14:21:52;9.90;1.00
8565;DHT22;4320;51.498;6.556;2023-03-04T14:24:19;9.80;1.00
8565;DHT22;4320;51.498;6.556;2023-03-04T14:26:46;9.80;1.00
8565;DHT22;4320;51.498;6.556;2023-03-04T14:29:24;9.80;1.00
8565;DHT22;4320;51.498;6.556;2023-03-04T14:31:52;9.70;1.00
8565;DHT22;4320;51.498;6.556;2023-03-04T14:34:29;9.70;1.00
8565;DHT22;4320;51.498;6.556;2023-03-04T14:36:56;9.70;1.00
8565;DHT22;4320;51.498;6.556;2023-03-04T14:39:25;9.60;1.00
8565;DHT22;4320;51.498;6.556;2023-03-04T14:41:53;9.60;1.00
8565;DHT22;4320;51.498;6.556;2023-03-04T14:44:33;9.50;1.00
8565;DHT22;4320;51.498;6.556;2023-03-04T14:47:46;9.40;1.00
8565;DHT22;4320;51.498;6.556;2023-03-04T14:50:15;9.40;1.00
8565;DHT22;4320;51.498;6.556;2023-03-04T14:52:43;9.40;1.00
8565;DHT22;4320;51.498;6.556;2023-03-04T14:55:20;9.40;1.00
8565;DHT22;4320;51.498;6.556;2023-03-04T14:57:53;9.30;1.00
8565;DHT22;4320;51.498;6.556;2023-03-04T15:00:32;9.30;1.00
8565;DHT22;4320;51.498;6.556;2023-03-04T15:03:06;9.30;1.00
8565;DHT22;4320;51.498;6.556;2023-03-04T15:05:40;9.30;1.00
8565;DHT22;4320;51.498;6.556;2023-03-04T15:08:21;9.30;1.00
8565;DHT22;4320;51.498;6.556;2023-03-04T15:11:02;9.30;1.00
8565;DHT22;4320;51.498;6.556;2023-03-04T15:13:55;9.30;1.00
8565;DHT22;4320;51.498;6.556;2023-03-04T15:16:24;9.30;1.00
8565;DHT22;4320;51.498;6.556;2023-03-04T15:19:18;9.20;1.00
8565;DHT22;4320;51.498;6.556;2023-03-04T15:21:47;9.10;1.00
8565;DHT22;4320;51.498;6.556;2023-03-04T15:24:13;9.10;1.00
8565;DHT22;4320;51.498;6.556;2023-03-04T15:26:41;9.00;1.00
8565;DHT22;4320;51.498;6.556;2023-03-04T15:29:15;9.00;1.00
8565;DHT22;4320;51.498;6.556;2023-03-04T15:31:42;9.00;1.00
8565;DHT22;4320;51.498;6.556;2023-03-04T15:34:12;9.00;1.00
8565;DHT22;4320;51.498;6.556;2023-03-04T15:36:38;9.00;1.00
8565;DHT22;4320;51.498;6.556;2023-03-04T15:39:04;8.90;1.00
8565;DHT22;4320;51.498;6.556;2023-03-04T15:41:30;8.90;1.00
8565;DHT22;4320;51.498;6.556;2023-03-04T15:43:56;8.80;1.00
8565;DHT22;4320;51.498;6.556;2023-03-04T15:46:22;8.80;1.00
8565;DHT22;4320;51.498;6.556;2023-03-04T15:48:48;8.90;1.00
8565;DHT22;4320;51.498;6.556;2023-03-04T15:51:16;8.80;1.00
8565;DHT22;4320;51.498;6.556;2023-03-04T15:53:48;8.80;1.00
8565;DHT22;4320;51.498;6.556;2023-03-04T15:56:17;8.80;1.00
8565;DHT22;4320;51.498;6.556;2023-03-04T15:58:52;8.90;1.00
8565;DHT22;4320;51.498;6.556;2023-03-04T16:01:18;8.90;1.00
8565;DHT22;4320;51.498;6.556;2023-03-04T16:03:43;9.00;1.00
8565;DHT22;4320;51.498;6.556;2023-03-04T16:06:11;8.90;1.00
8565;DHT22;4320;51.498;6.556;2023-03-04T16:08:38;8.90;1.00
8565;DHT22;4320;51.498;6.556;2023-03-04T16:11:04;8.90;1.00
8565;DHT22;4320;51.498;6.556;2023-03-04T16:13:30;9.00;1.00
8565;DHT22;4320;51.498;6.556;2023-03-04T16:15:55;8.90;1.00
8565;DHT22;4320;51.498;6.556;2023-03-04T16:18:22;9.00;1.00
8565;DHT22;4320;51.498;6.556;2023-03-04T16:20:49;9.00;1.00
8565;DHT22;4320;51.498;6.556;2023-03-04T16:23:21;9.00;1.00
8565;DHT22;4320;51.498;6.556;2023-03-04T16:25:48;9.00;1.00
8565;DHT22;4320;51.498;6.556;2023-03-04T16:28:15;9.00;1.00
8565;DHT22;4320;51.498;6.556;2023-03-04T16:30:41;8.90;1.00
8565;DHT22;4320;51.498;6.556;2023-03-04T16:33:07;8.90;1.00
8565;DHT22;4320;51.498;6.556;2023-03-04T16:35:35;8.90;1.00
8565;DHT22;4320;51.498;6.556;2023-03-04T16:38:01;8.90;1.00
8565;DHT22;4320;51.498;6.556;2023-03-04T16:40:29;8.90;1.00
8565;DHT22;4320;51.498;6.556;2023-03-04T16:42:55;8.90;1.00
8565;DHT22;4320;51.498;6.556;2023-03-04T16:45:23;8.90;1.00
8565;DHT22;4320;51.498;6.556;2023-03-04T16:47:49;8.90;1.00
8565;DHT22;4320;51.498;6.556;2023-03-04T16:50:19;8.90;1.00
8565;DHT22;4320;51.498;6.556;2023-03-04T16:52:47;8.90;1.00
8565;DHT22;4320;51.498;6.556;2023-03-04T16:55:27;8.80;1.00
8565;DHT22;4320;51.498;6.556;2023-03-04T16:57:55;8.80;1.00
8565;DHT22;4320;51.498;6.556;2023-03-04T17:00:23;8.80;1.00
8565;DHT22;4320;51.498;6.556;2023-03-04T17:02:57;8.70;1.00
8565;DHT22;4320;51.498;6.556;2023-03-04T17:05:26;8.70;1.00
8565;DHT22;4320;51.498;6.556;2023-03-04T17:07:52;8.80;1.00
8565;DHT22;4320;51.498;6.556;2023-03-04T17:10:18;8.80;1.00
8565;DHT22;4320;51.498;6.556;2023-03-04T17:12:44;8.80;1.00
8565;DHT22;4320;51.498;6.556;2023-03-04T17:15:12;8.80;1.00
8565;DHT22;4320;51.498;6.556;2023-03-04T17:17:39;8.80;1.00
8565;DHT22;4320;51.498;6.556;2023-03-04T17:20:05;8.80;1.00
8565;DHT22;4320;51.498;6.556;2023-03-04T17:22:32;8.80;1.00
8565;DHT22;4320;51.498;6.556;2023-03-04T17:24:58;8.80;1.00
8565;DHT22;4320;51.498;6.556;2023-03-04T17:27:24;8.80;1.00
8565;DHT22;4320;51.498;6.556;2023-03-04T17:29:50;8.70;1.00
8565;DHT22;4320;51.498;6.556;2023-03-04T17:32:18;8.70;1.00
8565;DHT22;4320;51.498;6.556;2023-03-04T17:34:44;8.70;1.00
8565;DHT22;4320;51.498;6.556;2023-03-04T17:37:09;8.70;1.00
8565;DHT22;4320;51.498;6.556;2023-03-04T17:39:35;8.70;1.00
8565;DHT22;4320;51.498;6.556;2023-03-04T17:42:00;8.60;1.00
8565;DHT22;4320;51.498;6.556;2023-03-04T17:44:26;8.70;1.00
8565;DHT22;4320;51.498;6.556;2023-03-04T17:46:52;8.60;1.00
8565;DHT22;4320;51.498;6.556;2023-03-04T17:49:17;8.60;1.00
8565;DHT22;4320;51.498;6.556;2023-03-04T17:51:43;8.60;1.00
8565;DHT22;4320;51.498;6.556;2023-03-04T17:54:09;8.60;1.00
8565;DHT22;4320;51.498;6.556;2023-03-04T17:56:38;8.50;1.00
8565;DHT22;4320;51.498;6.556;2023-03-04T17:59:07;8.50;1.00
8565;DHT22;4320;51.498;6.556;2023-03-04T18:01:34;8.50;1.00
8565;DHT22;4320;51.498;6.556;2023-03-04T18:04:00;8.50;1.00
8565;DHT22;4320;51.498;6.556;2023-03-04T18:06:26;8.50;1.00
8565;DHT22;4320;51.498;6.556;2023-03-04T18:08:52;8.50;1.00
8565;DHT22;4320;51.498;6.556;2023-03-04T18:11:20;8.50;1.00
8565;DHT22;4320;51.498;6.556;2023-03-04T18:13:45;8.50;1.00
8565;DHT22;4320;51.498;6.556;2023-03-04T18:16:15;8.50;1.00
8565;DHT22;4320;51.498;6.556;2023-03-04T18:18:50;8.50;1.00
8565;DHT22;4320;51.498;6.556;2023-03-04T18:21:17;8.40;1.00
8565;DHT22;4320;51.498;6.556;2023-03-04T18:23:43;8.50;1.00
8565;DHT22;4320;51.498;6.556;2023-03-04T18:26:09;8.50;1.00
8565;DHT22;4320;51.498;6.556;2023-03-04T18:28:35;8.50;1.00
8565;DHT22;4320;51.498;6.556;2023-03-04T18:31:01;8.50;1.00
8565;DHT22;4320;51.498;6.556;2023-03-04T18:33:28;8.50;1.00
8565;DHT22;4320;51.498;6.556;2023-03-04T18:36:01;8.40;1.00
8565;DHT22;4320;51.498;6.556;2023-03-04T18:38:28;8.40;1.00